sensor_id;sensor_type;location;lat;lon;timestamp;temperature;humidity
48946;DHT22;34999;50.940;3.998;2023-05-07T00:01:46;15.50;99.90
48946;DHT22;34999;50.940;3.998;2023-05-07T00:04:15;15.40;99.90
48946;DHT22;34999;50.940;3.998;2023-05-07T00:06:43;15.40;99.90
48946;DHT22;34999;50.940;3.998;2023-05-07T00:09:11;15.40;99.90
48946;DHT22;34999;50.940;3.998;2023-05-07T00:11:40;15.40;99.90
48946;DHT22;34999;50.940;3.998;2023-05-07T00:14:08;15.40;99.90
48946;DHT22;34999;50.940;3.998;2023-05-07T00:16:36;15.30;99.90
48946;DHT22;34999;50.940;3.998;2023-05-07T00:19:06;15.30;99.90
48946;DHT22;34999;50.940;3.998;2023-05-07T00:21:35;15.20;99.90
48946;DHT22;34999;50.940;3.998;2023-05-07T00:24:03;15.20;99.90
48946;DHT22;34999;50.940;3.998;2023-05-07T00:26:32;15.10;99.90
48946;DHT22;34999;50.940;3.998;2023-05-07T00:29:00;15.10;99.90
48946;DHT22;34999;50.940;3.998;2023-05-07T00:31:28;15.10;99.90
48946;DHT22;34999;50.940;3.998;2023-05-07T00:33:57;15.10;99.90
48946;DHT22;34999;50.940;3.998;2023-05-07T00:36:26;15.10;99.90
48946;DHT22;34999;50.940;3.998;2023-05-07T00:38:58;15.00;99.90
48946;DHT22;34999;50.940;3.998;2023-05-07T00:41:27;15.00;99.90
48946;DHT22;34999;50.940;3.998;2023-05-07T00:43:55;14.90;99.90
48946;DHT22;34999;50.940;3.998;2023-05-07T00:46:23;14.80;99.90
48946;DHT22;34999;50.940;3.998;2023-05-07T00:48:53;14.70;99.90
48946;DHT22;34999;50.940;3.998;2023-05-07T00:51:23;14.70;99.90
48946;DHT22;34999;50.940;3.998;2023-05-07T00:53:53;14.60;99.90
48946;DHT22;34999;50.940;3.998;2023-05-07T00:56:22;14.60;99.90
48946;DHT22;34999;50.940;3.998;2023-05-07T00:58:50;14.50;99.90
48946;DHT22;34999;50.940;3.998;2023-05-07T01:04:37;14.50;99.90
48946;DHT22;34999;50.940;3.998;2023-05-07T01:07:06;14.50;99.90
48946;DHT22;34999;50.940;3.998;2023-05-07T01:09:37;14.40;99.90
48946;DHT22;34999;50.940;3.998;2023-05-07T01:12:07;14.40;99.90
48946;DHT22;34999;50.940;3.998;2023-05-07T01:14:35;14.40;99.90
48946;DHT22;34999;50.940;3.998;2023-05-07T01:17:03;14.30;99.90
48946;DHT22;34999;50.940;3.998;2023-05-07T01:19:32;14.30;99.90
48946;DHT22;34999;50.940;3.998;2023-05-07T01:22:02;14.30;99.90
48946;DHT22;34999;50.940;3.998;2023-05-07T01:24:33;14.20;99.90
48946;DHT22;34999;50.940;3.998;2023-05-07T01:27:03;14.20;99.90
48946;DHT22;34999;50.940;3.998;2023-05-07T01:29:31;14.20;99.90
48946;DHT22;34999;50.940;3.998;2023-05-07T01:32:01;14.20;99.90
48946;DHT22;34999;50.940;3.998;2023-05-07T01:34:32;14.10;99.90
48946;DHT22;34999;50.940;3.998;2023-05-07T01:37:00;14.10;99.90
48946;DHT22;34999;50.940;3.998;2023-05-07T01:39:30;14.10;99.90
48946;DHT22;34999;50.940;3.998;2023-05-07T01:42:00;14.10;99.90
48946;DHT22;34999;50.940;3.998;2023-05-07T01:44:28;14.10;99.90
48946;DHT22;34999;50.940;3.998;2023-05-07T01:46:57;14.10;99.90
48946;DHT22;34999;50.940;3.998;2023-05-07T01:49:26;14.10;99.90
48946;DHT22;34999;50.940;3.998;2023-05-07T01:51:54;14.00;99.90
48946;DHT22;34999;50.940;3.998;2023-05-07T01:54:25;14.00;99.90
48946;DHT22;34999;50.940;3.998;2023-05-07T01:56:56;14.00;99.90
48946;DHT22;34999;50.940;3.998;2023-05-07T01:59:26;14.00;99.90
48946;DHT22;34999;50.940;3.998;2023-05-07T02:01:54;14.00;99.90
48946;DHT22;34999;50.940;3.998;2023-05-07T02:04:22;14.00;99.90
48946;DHT22;34999;50.940;3.998;2023-05-07T02:06:51;14.00;99.90
48946;DHT22;34999;50.940;3.998;2023-05-07T02:09:19;14.00;99.90
48946;DHT22;34999;50.940;3.998;2023-05-07T02:11:48;14.10;99.90
48946;DHT22;34999;50.940;3.998;2023-05-07T02:14:16;14.10;99.90
48946;DHT22;34999;50.940;3.998;2023-05-07T02:16:45;14.10;99.90
48946;DHT22;34999;50.940;3.998;2023-05-07T02:19:14;14.10;99.90
48946;DHT22;34999;50.940;3.998;2023-05-07T02:21:43;14.10;99.90
48946;DHT22;34999;50.940;3.998;2023-05-07T02:24:11;14.10;99.90
48946;DHT22;34999;50.940;3.998;2023-05-07T02:26:39;14.00;99.90
48946;DHT22;34999;50.940;3.998;2023-05-07T02:29:08;14.10;99.90
48946;DHT22;34999;50.940;3.998;2023-05-07T02:31:36;14.10;99.90
48946;DHT22;34999;50.940;3.998;2023-05-07T02:34:06;14.10;99.90
48946;DHT22;34999;50.940;3.998;2023-05-07T02:36:34;14.10;99.90
48946;DHT22;34999;50.940;3.998;2023-05-07T02:39:02;14.00;99.90
48946;DHT22;34999;50.940;3.998;2023-05-07T02:41:31;14.00;99.90
48946;DHT22;34999;50.940;3.998;2023-05-07T02:43:59;14.00;99.90
48946;DHT22;34999;50.940;3.998;2023-05-07T02:46:27;14.00;99.90
48946;DHT22;34999;50.940;3.998;2023-05-07T02:48:56;14.00;99.90
48946;DHT22;34999;50.940;3.998;2023-05-07T02:51:25;14.00;99.90
48946;DHT22;34999;50.940;3.998;2023-05-07T02:53:54;14.00;99.90
48946;DHT22;34999;50.940;3.998;2023-05-07T02:56:22;14.00;99.90
48946;DHT22;34999;50.940;3.998;2023-05-07T02:58:50;14.00;99.90
48946;DHT22;34999;50.940;3.998;2023-05-07T03:01:18;14.00;99.90
48946;DHT22;34999;50.940;3.998;2023-05-07T03:03:48;14.10;99.90
48946;DHT22;34999;50.940;3.998;2023-05-07T03:06:16;14.00;99.90
48946;DHT22;34999;50.940;3.998;2023-05-07T03:08:45;14.00;99.90
48946;DHT22;34999;50.940;3.998;2023-05-07T03:11:14;14.00;99.90
48946;DHT22;34999;50.940;3.998;2023-05-07T03:13:42;14.00;99.90
48946;DHT22;34999;50.940;3.998;2023-05-07T03:16:10;13.90;99.90
48946;DHT22;34999;50.940;3.998;2023-05-07T03:18:38;13.90;99.90
48946;DHT22;34999;50.940;3.998;2023-05-07T03:21:06;13.90;99.90
48946;DHT22;34999;50.940;3.998;2023-05-07T03:23:35;13.90;99.90
48946;DHT22;34999;50.940;3.998;2023-05-07T03:26:04;13.90;99.90
48946;DHT22;34999;50.940;3.998;2023-05-07T03:28:32;13.90;99.90
48946;DHT22;34999;50.940;3.998;2023-05-07T03:31:00;13.80;99.90
48946;DHT22;34999;50.940;3.998;2023-05-07T03:33:29;13.80;99.90
48946;DHT22;34999;50.940;3.998;2023-05-07T03:35:57;13.80;99.90
48946;DHT22;34999;50.940;3.998;2023-05-07T03:38:25;13.80;99.90
48946;DHT22;34999;50.940;3.998;2023-05-07T03:40:53;13.80;99.90
48946;DHT22;34999;50.940;3.998;2023-05-07T03:43:23;13.80;99.90
48946;DHT22;34999;50.940;3.998;2023-05-07T03:45:51;13.70;99.90
48946;DHT22;34999;50.940;3.998;2023-05-07T03:48:20;13.70;99.90
48946;DHT22;34999;50.940;3.998;2023-05-07T03:50:48;13.70;99.90
48946;DHT22;34999;50.940;3.998;2023-05-07T03:53:16;13.70;99.90
48946;DHT22;34999;50.940;3.998;2023-05-07T03:55:44;13.70;99.90
48946;DHT22;34999;50.940;3.998;2023-05-07T03:58:13;13.70;99.90
48946;DHT22;34999;50.940;3.998;2023-05-07T04:00:42;13.70;99.90
48946;DHT22;34999;50.940;3.998;2023-05-07T04:03:11;13.70;99.90
48946;DHT22;34999;50.940;3.998;2023-05-07T04:05:39;13.70;99.90
48946;DHT22;34999;50.940;3.998;2023-05-07T04:08:07;13.80;99.90
48946;DHT22;34999;50.940;3.998;2023-05-07T04:10:35;13.80;99.90
48946;DHT22;34999;50.940;3.998;2023-05-07T04:13:04;13.70;99.90
48946;DHT22;34999;50.940;3.998;2023-05-07T04:15:32;13.80;99.90
48946;DHT22;34999;50.940;3.998;2023-05-07T04:18:02;13.70;99.90
48946;DHT22;34999;50.940;3.998;2023-05-07T04:20:30;13.80;99.90
48946;DHT22;34999;50.940;3.998;2023-05-07T04:22:58;13.80;99.90
48946;DHT22;34999;50.940;3.998;2023-05-07T04:25:27;13.80;99.90
48946;DHT22;34999;50.940;3.998;2023-05-07T04:27:55;13.80;99.90
48946;DHT22;34999;50.940;3.998;2023-05-07T04:30:24;13.90;99.90
48946;DHT22;34999;50.940;3.998;2023-05-07T04:32:52;13.80;99.90
48946;DHT22;34999;50.940;3.998;2023-05-07T04:35:22;13.80;99.90
48946;DHT22;34999;50.940;3.998;2023-05-07T04:37:50;13.90;99.90
48946;DHT22;34999;50.940;3.998;2023-05-07T04:40:18;13.90;99.90
48946;DHT22;34999;50.940;3.998;2023-05-07T04:42:47;13.90;99.90
48946;DHT22;34999;50.940;3.998;2023-05-07T04:45:15;14.00;99.90
48946;DHT22;34999;50.940;3.998;2023-05-07T04:47:43;14.00;99.90
48946;DHT22;34999;50.940;3.998;2023-05-07T04:50:11;14.00;99.90
48946;DHT22;34999;50.940;3.998;2023-05-07T04:52:41;14.00;99.90
48946;DHT22;34999;50.940;3.998;2023-05-07T04:55:10;14.10;99.90
48946;DHT22;34999;50.940;3.998;2023-05-07T04:57:38;14.10;99.90
48946;DHT22;34999;50.940;3.998;2023-05-07T05:00:08;14.10;99.90
48946;DHT22;34999;50.940;3.998;2023-05-07T05:02:37;14.20;99.90
48946;DHT22;34999;50.940;3.998;2023-05-07T05:05:07;14.20;99.90
48946;DHT22;34999;50.940;3.998;2023-05-07T05:07:35;14.30;99.90
48946;DHT22;34999;50.940;3.998;2023-05-07T05:10:06;14.30;99.90
48946;DHT22;34999;50.940;3.998;2023-05-07T05:12:35;14.30;99.90
48946;DHT22;34999;50.940;3.998;2023-05-07T05:15:04;14.30;99.90
48946;DHT22;34999;50.940;3.998;2023-05-07T05:17:32;14.30;99.90
48946;DHT22;34999;50.940;3.998;2023-05-07T05:20:02;14.30;99.90
48946;DHT22;34999;50.940;3.998;2023-05-07T05:22:30;14.30;99.90
48946;DHT22;34999;50.940;3.998;2023-05-07T05:24:58;14.40;99.90
48946;DHT22;34999;50.940;3.998;2023-05-07T05:27:29;14.40;99.90
48946;DHT22;34999;50.940;3.998;2023-05-07T05:29:57;14.40;99.90
48946;DHT22;34999;50.940;3.998;2023-05-07T05:32:25;14.50;99.90
48946;DHT22;34999;50.940;3.998;2023-05-07T05:34:53;14.50;99.90
48946;DHT22;34999;50.940;3.998;2023-05-07T05:37:22;14.50;99.90
48946;DHT22;34999;50.940;3.998;2023-05-07T05:39:51;14.60;99.90
48946;DHT22;34999;50.940;3.998;2023-05-07T05:42:21;14.60;99.90
48946;DHT22;34999;50.940;3.998;2023-05-07T05:44:51;14.70;99.90
48946;DHT22;34999;50.940;3.998;2023-05-07T05:47:19;14.70;99.90
48946;DHT22;34999;50.940;3.998;2023-05-07T05:49:47;14.70;99.90
48946;DHT22;34999;50.940;3.998;2023-05-07T05:52:16;14.80;99.90
48946;DHT22;34999;50.940;3.998;2023-05-07T05:54:44;14.80;99.90
48946;DHT22;34999;50.940;3.998;2023-05-07T05:57:12;14.70;99.90
48946;DHT22;34999;50.940;3.998;2023-05-07T05:59:41;14.70;99.90
48946;DHT22;34999;50.940;3.998;2023-05-07T06:02:10;14.80;99.90
48946;DHT22;34999;50.940;3.998;2023-05-07T06:04:38;14.80;99.90
48946;DHT22;34999;50.940;3.998;2023-05-07T06:07:07;14.80;99.90
48946;DHT22;34999;50.940;3.998;2023-05-07T06:09:35;14.80;99.90
48946;DHT22;34999;50.940;3.998;2023-05-07T06:12:03;14.80;99.90
48946;DHT22;34999;50.940;3.998;2023-05-07T06:14:32;14.80;99.90
48946;DHT22;34999;50.940;3.998;2023-05-07T06:17:00;14.80;99.90
48946;DHT22;34999;50.940;3.998;2023-05-07T06:19:29;14.80;99.90
48946;DHT22;34999;50.940;3.998;2023-05-07T06:21:58;14.80;99.90
48946;DHT22;34999;50.940;3.998;2023-05-07T06:24:28;14.80;99.90
48946;DHT22;34999;50.940;3.998;2023-05-07T06:26:56;14.80;99.90
48946;DHT22;34999;50.940;3.998;2023-05-07T06:29:25;14.80;99.90
48946;DHT22;34999;50.940;3.998;2023-05-07T06:31:54;14.80;99.90
48946;DHT22;34999;50.940;3.998;2023-05-07T06:34:22;14.70;99.90
48946;DHT22;34999;50.940;3.998;2023-05-07T06:36:52;14.70;99.90
48946;DHT22;34999;50.940;3.998;2023-05-07T06:39:20;14.70;99.90
48946;DHT22;34999;50.940;3.998;2023-05-07T06:41:48;14.70;99.90
48946;DHT22;34999;50.940;3.998;2023-05-07T06:44:16;14.70;99.90
48946;DHT22;34999;50.940;3.998;2023-05-07T06:46:45;14.70;99.90
48946;DHT22;34999;50.940;3.998;2023-05-07T06:49:14;14.70;99.90
48946;DHT22;34999;50.940;3.998;2023-05-07T06:51:42;14.70;99.90
48946;DHT22;34999;50.940;3.998;2023-05-07T06:54:12;14.70;99.90
48946;DHT22;34999;50.940;3.998;2023-05-07T06:56:40;14.70;99.90
48946;DHT22;34999;50.940;3.998;2023-05-07T06:59:08;14.80;99.90
48946;DHT22;34999;50.940;3.998;2023-05-07T07:01:36;14.80;99.90
48946;DHT22;34999;50.940;3.998;2023-05-07T07:04:05;14.90;99.90
48946;DHT22;34999;50.940;3.998;2023-05-07T07:06:34;14.90;99.90
48946;DHT22;34999;50.940;3.998;2023-05-07T07:09:02;15.00;99.90
48946;DHT22;34999;50.940;3.998;2023-05-07T07:11:31;15.00;99.90
48946;DHT22;34999;50.940;3.998;2023-05-07T07:14:00;15.00;99.90
48946;DHT22;34999;50.940;3.998;2023-05-07T07:16:28;15.00;99.90
48946;DHT22;34999;50.940;3.998;2023-05-07T07:18:56;15.00;99.90
48946;DHT22;34999;50.940;3.998;2023-05-07T07:21:25;15.10;99.90
48946;DHT22;34999;50.940;3.998;2023-05-07T07:23:53;15.10;99.90
48946;DHT22;34999;50.940;3.998;2023-05-07T07:26:22;15.10;99.90
48946;DHT22;34999;50.940;3.998;2023-05-07T07:28:51;15.20;99.90
48946;DHT22;34999;50.940;3.998;2023-05-07T07:31:21;15.20;99.90
48946;DHT22;34999;50.940;3.998;2023-05-07T07:33:50;15.20;99.90
48946;DHT22;34999;50.940;3.998;2023-05-07T07:36:19;15.30;99.90
48946;DHT22;34999;50.940;3.998;2023-05-07T07:38:49;15.30;99.90
48946;DHT22;34999;50.940;3.998;2023-05-07T07:41:17;15.40;99.90
48946;DHT22;34999;50.940;3.998;2023-05-07T07:43:46;15.40;99.90
48946;DHT22;34999;50.940;3.998;2023-05-07T07:46:19;15.30;99.90
48946;DHT22;34999;50.940;3.998;2023-05-07T07:48:47;15.40;99.90
48946;DHT22;34999;50.940;3.998;2023-05-07T07:51:15;15.50;99.90
48946;DHT22;34999;50.940;3.998;2023-05-07T07:53:43;15.50;99.90
48946;DHT22;34999;50.940;3.998;2023-05-07T07:56:12;15.60;99.90
48946;DHT22;34999;50.940;3.998;2023-05-07T07:58:40;15.60;99.90
48946;DHT22;34999;50.940;3.998;2023-05-07T08:01:08;15.60;99.90
48946;DHT22;34999;50.940;3.998;2023-05-07T08:03:38;15.60;99.90
48946;DHT22;34999;50.940;3.998;2023-05-07T08:06:06;15.70;99.90
48946;DHT22;34999;50.940;3.998;2023-05-07T08:08:35;15.70;99.90
48946;DHT22;34999;50.940;3.998;2023-05-07T08:11:04;15.80;99.90
48946;DHT22;34999;50.940;3.998;2023-05-07T08:13:33;15.80;99.90
48946;DHT22;34999;50.940;3.998;2023-05-07T08:16:01;15.80;99.90
48946;DHT22;34999;50.940;3.998;2023-05-07T08:18:29;15.90;99.90
48946;DHT22;34999;50.940;3.998;2023-05-07T08:20:59;15.90;99.90
48946;DHT22;34999;50.940;3.998;2023-05-07T08:23:27;15.90;99.90
48946;DHT22;34999;50.940;3.998;2023-05-07T08:25:55;15.90;99.90
48946;DHT22;34999;50.940;3.998;2023-05-07T08:28:24;15.90;99.90
48946;DHT22;34999;50.940;3.998;2023-05-07T08:30:52;15.90;99.90
48946;DHT22;34999;50.940;3.998;2023-05-07T08:33:21;15.90;99.90
48946;DHT22;34999;50.940;3.998;2023-05-07T08:35:49;15.90;99.90
48946;DHT22;34999;50.940;3.998;2023-05-07T08:38:19;15.90;99.90
48946;DHT22;34999;50.940;3.998;2023-05-07T08:40:47;15.90;99.90
48946;DHT22;34999;50.940;3.998;2023-05-07T08:43:17;15.90;99.90
48946;DHT22;34999;50.940;3.998;2023-05-07T08:45:49;15.80;99.90
48946;DHT22;34999;50.940;3.998;2023-05-07T08:48:22;15.90;99.90
48946;DHT22;34999;50.940;3.998;2023-05-07T08:50:53;15.90;99.90
48946;DHT22;34999;50.940;3.998;2023-05-07T08:53:23;15.90;99.90
48946;DHT22;34999;50.940;3.998;2023-05-07T08:55:51;15.90;99.90
48946;DHT22;34999;50.940;3.998;2023-05-07T08:58:20;15.90;99.90
48946;DHT22;34999;50.940;3.998;2023-05-07T09:00:49;15.90;99.90
48946;DHT22;34999;50.940;3.998;2023-05-07T09:03:18;15.90;99.90
48946;DHT22;34999;50.940;3.998;2023-05-07T09:05:47;16.00;99.90
48946;DHT22;34999;50.940;3.998;2023-05-07T09:08:15;16.00;99.90
48946;DHT22;34999;50.940;3.998;2023-05-07T09:10:45;16.10;99.90
48946;DHT22;34999;50.940;3.998;2023-05-07T09:13:13;16.20;99.90
48946;DHT22;34999;50.940;3.998;2023-05-07T09:15:41;16.20;99.90
48946;DHT22;34999;50.940;3.998;2023-05-07T09:18:10;16.20;99.90
48946;DHT22;34999;50.940;3.998;2023-05-07T09:20:40;16.20;99.90
48946;DHT22;34999;50.940;3.998;2023-05-07T09:23:08;16.40;99.90
48946;DHT22;34999;50.940;3.998;2023-05-07T09:25:37;16.40;99.90
48946;DHT22;34999;50.940;3.998;2023-05-07T09:28:06;16.40;99.90
48946;DHT22;34999;50.940;3.998;2023-05-07T09:30:37;16.50;99.90
48946;DHT22;34999;50.940;3.998;2023-05-07T09:33:05;16.50;99.90
48946;DHT22;34999;50.940;3.998;2023-05-07T09:35:33;16.60;99.90
48946;DHT22;34999;50.940;3.998;2023-05-07T09:38:02;16.50;99.90
48946;DHT22;34999;50.940;3.998;2023-05-07T09:40:30;16.50;99.90
48946;DHT22;34999;50.940;3.998;2023-05-07T09:43:10;16.60;99.90
48946;DHT22;34999;50.940;3.998;2023-05-07T09:45:39;16.70;99.90
48946;DHT22;34999;50.940;3.998;2023-05-07T09:48:08;16.70;99.90
48946;DHT22;34999;50.940;3.998;2023-05-07T09:50:48;16.70;99.90
48946;DHT22;34999;50.940;3.998;2023-05-07T09:53:17;16.80;99.90
48946;DHT22;34999;50.940;3.998;2023-05-07T09:55:45;16.80;99.90
48946;DHT22;34999;50.940;3.998;2023-05-07T09:58:16;16.80;99.90
48946;DHT22;34999;50.940;3.998;2023-05-07T10:00:46;16.80;99.90
48946;DHT22;34999;50.940;3.998;2023-05-07T10:03:15;16.80;99.90
48946;DHT22;34999;50.940;3.998;2023-05-07T10:05:44;16.80;99.90
48946;DHT22;34999;50.940;3.998;2023-05-07T10:08:14;16.80;99.90
48946;DHT22;34999;50.940;3.998;2023-05-07T10:10:44;16.80;99.90
48946;DHT22;34999;50.940;3.998;2023-05-07T10:13:14;16.80;99.90
48946;DHT22;34999;50.940;3.998;2023-05-07T10:15:43;16.90;99.90
48946;DHT22;34999;50.940;3.998;2023-05-07T10:18:12;17.00;99.90
48946;DHT22;34999;50.940;3.998;2023-05-07T10:20:43;17.10;99.90
48946;DHT22;34999;50.940;3.998;2023-05-07T10:23:15;17.20;99.90
48946;DHT22;34999;50.940;3.998;2023-05-07T10:25:44;17.20;99.90
48946;DHT22;34999;50.940;3.998;2023-05-07T10:28:16;17.20;99.90
48946;DHT22;34999;50.940;3.998;2023-05-07T10:30:55;17.20;99.90
48946;DHT22;34999;50.940;3.998;2023-05-07T10:33:29;17.20;99.90
48946;DHT22;34999;50.940;3.998;2023-05-07T10:36:01;17.20;99.90
48946;DHT22;34999;50.940;3.998;2023-05-07T10:38:31;17.30;99.90
48946;DHT22;34999;50.940;3.998;2023-05-07T10:40:59;17.40;99.90
48946;DHT22;34999;50.940;3.998;2023-05-07T10:43:39;17.40;99.90
48946;DHT22;34999;50.940;3.998;2023-05-07T10:46:15;17.30;99.90
48946;DHT22;34999;50.940;3.998;2023-05-07T10:49:08;17.50;99.90
48946;DHT22;34999;50.940;3.998;2023-05-07T10:51:38;17.70;99.90
48946;DHT22;34999;50.940;3.998;2023-05-07T10:54:21;17.70;99.90
48946;DHT22;34999;50.940;3.998;2023-05-07T10:56:49;17.70;99.90
48946;DHT22;34999;50.940;3.998;2023-05-07T10:59:34;17.70;99.90
48946;DHT22;34999;50.940;3.998;2023-05-07T11:02:09;17.70;99.90
48946;DHT22;34999;50.940;3.998;2023-05-07T11:04:38;17.50;99.90
48946;DHT22;34999;50.940;3.998;2023-05-07T11:07:24;17.50;99.90
48946;DHT22;34999;50.940;3.998;2023-05-07T11:09:57;17.60;99.90
48946;DHT22;34999;50.940;3.998;2023-05-07T11:12:53;17.70;99.90
48946;DHT22;34999;50.940;3.998;2023-05-07T11:15:42;17.70;99.90
48946;DHT22;34999;50.940;3.998;2023-05-07T11:18:14;17.80;99.90
48946;DHT22;34999;50.940;3.998;2023-05-07T11:20:57;17.70;99.90
48946;DHT22;34999;50.940;3.998;2023-05-07T11:23:57;17.80;99.90
48946;DHT22;34999;50.940;3.998;2023-05-07T11:26:28;17.80;99.90
48946;DHT22;34999;50.940;3.998;2023-05-07T11:28:57;17.80;99.90
48946;DHT22;34999;50.940;3.998;2023-05-07T11:31:28;17.80;99.90
48946;DHT22;34999;50.940;3.998;2023-05-07T11:33:57;17.80;99.90
48946;DHT22;34999;50.940;3.998;2023-05-07T11:36:31;17.80;99.90
48946;DHT22;34999;50.940;3.998;2023-05-07T11:38:59;17.90;99.90
48946;DHT22;34999;50.940;3.998;2023-05-07T11:41:34;18.30;99.90
48946;DHT22;34999;50.940;3.998;2023-05-07T11:44:04;18.40;99.90
48946;DHT22;34999;50.940;3.998;2023-05-07T11:46:33;18.40;99.90
48946;DHT22;34999;50.940;3.998;2023-05-07T11:49:02;18.30;99.90
48946;DHT22;34999;50.940;3.998;2023-05-07T11:51:30;18.10;99.90
48946;DHT22;34999;50.940;3.998;2023-05-07T11:53:58;18.10;99.90
48946;DHT22;34999;50.940;3.998;2023-05-07T11:56:26;18.00;99.90
48946;DHT22;34999;50.940;3.998;2023-05-07T11:58:55;18.10;99.90
48946;DHT22;34999;50.940;3.998;2023-05-07T12:01:23;18.10;99.90
48946;DHT22;34999;50.940;3.998;2023-05-07T12:03:53;18.10;99.90
48946;DHT22;34999;50.940;3.998;2023-05-07T12:06:21;18.20;99.90
48946;DHT22;34999;50.940;3.998;2023-05-07T12:08:50;18.20;99.90
48946;DHT22;34999;50.940;3.998;2023-05-07T12:11:23;18.20;99.90
48946;DHT22;34999;50.940;3.998;2023-05-07T12:13:53;18.20;99.90
48946;DHT22;34999;50.940;3.998;2023-05-07T12:16:29;18.20;99.90
48946;DHT22;34999;50.940;3.998;2023-05-07T12:18:59;18.10;99.90
48946;DHT22;34999;50.940;3.998;2023-05-07T12:21:28;18.10;99.90
48946;DHT22;34999;50.940;3.998;2023-05-07T12:23:57;17.90;99.90
48946;DHT22;34999;50.940;3.998;2023-05-07T12:26:25;17.80;99.90
48946;DHT22;34999;50.940;3.998;2023-05-07T12:28:54;17.70;99.90
48946;DHT22;34999;50.940;3.998;2023-05-07T12:31:22;17.70;99.90
48946;DHT22;34999;50.940;3.998;2023-05-07T12:33:50;17.60;99.90
48946;DHT22;34999;50.940;3.998;2023-05-07T12:36:20;17.50;99.90
48946;DHT22;34999;50.940;3.998;2023-05-07T12:38:49;17.40;99.90
48946;DHT22;34999;50.940;3.998;2023-05-07T12:41:17;17.40;99.90
48946;DHT22;34999;50.940;3.998;2023-05-07T12:43:56;17.30;99.90
48946;DHT22;34999;50.940;3.998;2023-05-07T12:46:24;17.40;99.90
48946;DHT22;34999;50.940;3.998;2023-05-07T12:48:53;17.40;99.90
48946;DHT22;34999;50.940;3.998;2023-05-07T12:51:23;17.50;99.90
48946;DHT22;34999;50.940;3.998;2023-05-07T12:53:56;17.40;99.90
48946;DHT22;34999;50.940;3.998;2023-05-07T12:56:24;17.40;99.90
48946;DHT22;34999;50.940;3.998;2023-05-07T12:58:57;17.40;99.90
48946;DHT22;34999;50.940;3.998;2023-05-07T13:01:29;17.40;99.90
48946;DHT22;34999;50.940;3.998;2023-05-07T13:04:01;17.40;99.90
48946;DHT22;34999;50.940;3.998;2023-05-07T13:06:32;17.30;99.90
48946;DHT22;34999;50.940;3.998;2023-05-07T13:09:00;17.30;99.90
48946;DHT22;34999;50.940;3.998;2023-05-07T13:11:28;17.40;99.90
48946;DHT22;34999;50.940;3.998;2023-05-07T13:13:57;17.40;99.90
48946;DHT22;34999;50.940;3.998;2023-05-07T13:16:25;17.50;99.90
48946;DHT22;34999;50.940;3.998;2023-05-07T13:18:53;17.60;99.90
48946;DHT22;34999;50.940;3.998;2023-05-07T13:21:21;17.70;99.90
48946;DHT22;34999;50.940;3.998;2023-05-07T13:23:51;17.80;99.90
48946;DHT22;34999;50.940;3.998;2023-05-07T13:26:19;18.00;99.90
48946;DHT22;34999;50.940;3.998;2023-05-07T13:28:53;18.10;99.90
48946;DHT22;34999;50.940;3.998;2023-05-07T13:31:22;18.30;99.90
48946;DHT22;34999;50.940;3.998;2023-05-07T13:33:50;18.40;99.90
48946;DHT22;34999;50.940;3.998;2023-05-07T13:36:19;18.70;99.90
48946;DHT22;34999;50.940;3.998;2023-05-07T13:38:48;18.80;99.90
48946;DHT22;34999;50.940;3.998;2023-05-07T13:41:18;18.90;99.90
48946;DHT22;34999;50.940;3.998;2023-05-07T13:43:46;19.20;99.90
48946;DHT22;34999;50.940;3.998;2023-05-07T13:46:16;19.20;99.90
48946;DHT22;34999;50.940;3.998;2023-05-07T13:48:44;19.30;99.90
48946;DHT22;34999;50.940;3.998;2023-05-07T13:51:12;19.20;99.90
48946;DHT22;34999;50.940;3.998;2023-05-07T13:53:40;19.20;99.90
48946;DHT22;34999;50.940;3.998;2023-05-07T13:56:09;19.20;99.90
48946;DHT22;34999;50.940;3.998;2023-05-07T13:58:38;19.50;99.90
48946;DHT22;34999;50.940;3.998;2023-05-07T14:01:25;19.40;99.90
48946;DHT22;34999;50.940;3.998;2023-05-07T14:03:53;19.30;99.90
48946;DHT22;34999;50.940;3.998;2023-05-07T14:06:21;19.30;99.90
48946;DHT22;34999;50.940;3.998;2023-05-07T14:08:49;19.20;99.90
48946;DHT22;34999;50.940;3.998;2023-05-07T14:11:18;19.30;99.90
48946;DHT22;34999;50.940;3.998;2023-05-07T14:13:47;19.30;99.90
48946;DHT22;34999;50.940;3.998;2023-05-07T14:16:16;19.20;99.90
48946;DHT22;34999;50.940;3.998;2023-05-07T14:18:44;19.40;99.90
48946;DHT22;34999;50.940;3.998;2023-05-07T14:21:12;19.40;99.90
48946;DHT22;34999;50.940;3.998;2023-05-07T14:23:41;19.60;99.90
48946;DHT22;34999;50.940;3.998;2023-05-07T14:26:09;19.60;99.90
48946;DHT22;34999;50.940;3.998;2023-05-07T14:28:37;19.70;99.90
48946;DHT22;34999;50.940;3.998;2023-05-07T14:31:08;19.70;99.90
48946;DHT22;34999;50.940;3.998;2023-05-07T14:33:36;19.70;99.90
48946;DHT22;34999;50.940;3.998;2023-05-07T14:36:07;19.60;99.90
48946;DHT22;34999;50.940;3.998;2023-05-07T14:38:36;19.70;99.90
48946;DHT22;34999;50.940;3.998;2023-05-07T14:41:04;19.70;99.90
48946;DHT22;34999;50.940;3.998;2023-05-07T14:43:32;19.80;99.90
48946;DHT22;34999;50.940;3.998;2023-05-07T14:46:00;19.80;99.90
48946;DHT22;34999;50.940;3.998;2023-05-07T14:48:30;19.80;99.90
48946;DHT22;34999;50.940;3.998;2023-05-07T14:50:58;19.80;99.90
48946;DHT22;34999;50.940;3.998;2023-05-07T14:53:27;19.80;99.90
48946;DHT22;34999;50.940;3.998;2023-05-07T14:55:55;19.80;99.90
48946;DHT22;34999;50.940;3.998;2023-05-07T14:58:23;19.80;99.90
48946;DHT22;34999;50.940;3.998;2023-05-07T15:00:51;19.80;99.90
48946;DHT22;34999;50.940;3.998;2023-05-07T15:03:20;19.80;99.90
48946;DHT22;34999;50.940;3.998;2023-05-07T15:05:50;19.80;99.90
48946;DHT22;34999;50.940;3.998;2023-05-07T15:08:19;19.90;99.90
48946;DHT22;34999;50.940;3.998;2023-05-07T15:10:47;19.90;99.90
48946;DHT22;34999;50.940;3.998;2023-05-07T15:13:15;20.00;99.90
48946;DHT22;34999;50.940;3.998;2023-05-07T15:15:44;19.90;99.90
48946;DHT22;34999;50.940;3.998;2023-05-07T15:18:13;19.90;99.90
48946;DHT22;34999;50.940;3.998;2023-05-07T15:20:42;19.90;99.90
48946;DHT22;34999;50.940;3.998;2023-05-07T15:23:11;19.90;99.90
48946;DHT22;34999;50.940;3.998;2023-05-07T15:25:41;20.00;99.90
48946;DHT22;34999;50.940;3.998;2023-05-07T15:28:09;20.00;99.90
48946;DHT22;34999;50.940;3.998;2023-05-07T15:30:37;19.90;99.90
48946;DHT22;34999;50.940;3.998;2023-05-07T15:33:05;19.90;99.90
48946;DHT22;34999;50.940;3.998;2023-05-07T15:35:34;19.80;99.90
48946;DHT22;34999;50.940;3.998;2023-05-07T15:38:02;19.80;99.90
48946;DHT22;34999;50.940;3.998;2023-05-07T15:40:32;19.80;99.90
48946;DHT22;34999;50.940;3.998;2023-05-07T15:43:02;19.80;99.90
48946;DHT22;34999;50.940;3.998;2023-05-07T15:45:30;19.70;99.90
48946;DHT22;34999;50.940;3.998;2023-05-07T15:47:59;19.70;99.90